sensor_id;sensor_type;location;lat;lon;timestamp;P1;durP1;ratioP1;P2;durP2;ratioP2
15043;SDS011;7619;48.562;8.910;2022-11-15T00:01:25;11.73;;;5.67;;
15043;SDS011;7619;48.562;8.910;2022-11-15T00:03:54;7.80;;;5.80;;
15043;SDS011;7619;48.562;8.910;2022-11-15T00:06:23;8.10;;;5.20;;
15043;SDS011;7619;48.562;8.910;2022-11-15T00:08:52;9.43;;;5.67;;
15043;SDS011;7619;48.562;8.910;2022-11-15T00:11:21;7.93;;;5.27;;
15043;SDS011;7619;48.562;8.910;2022-11-15T00:13:50;6.60;;;5.10;;
15043;SDS011;7619;48.562;8.910;2022-11-15T00:16:20;5.67;;;4.47;;
15043;SDS011;7619;48.562;8.910;2022-11-15T00:18:50;6.53;;;5.50;;
15043;SDS011;7619;48.562;8.910;2022-11-15T00:21:19;8.40;;;5.40;;
15043;SDS011;7619;48.562;8.910;2022-11-15T00:23:48;9.53;;;5.97;;
15043;SDS011;7619;48.562;8.910;2022-11-15T00:26:17;9.73;;;6.20;;
15043;SDS011;7619;48.562;8.910;2022-11-15T00:28:46;7.43;;;6.00;;
15043;SDS011;7619;48.562;8.910;2022-11-15T00:31:15;6.80;;;6.03;;
15043;SDS011;7619;48.562;8.910;2022-11-15T00:33:44;9.40;;;6.23;;
15043;SDS011;7619;48.562;8.910;2022-11-15T00:36:13;8.67;;;5.60;;
15043;SDS011;7619;48.562;8.910;2022-11-15T00:38:42;5.97;;;4.53;;
15043;SDS011;7619;48.562;8.910;2022-11-15T00:41:10;7.67;;;5.27;;
15043;SDS011;7619;48.562;8.910;2022-11-15T00:43:39;10.90;;;5.77;;
15043;SDS011;7619;48.562;8.910;2022-11-15T00:46:09;8.73;;;5.77;;
15043;SDS011;7619;48.562;8.910;2022-11-15T00:48:38;7.87;;;5.60;;
15043;SDS011;7619;48.562;8.910;2022-11-15T00:51:07;16.43;;;12.87;;
15043;SDS011;7619;48.562;8.910;2022-11-15T00:53:36;13.30;;;11.20;;
15043;SDS011;7619;48.562;8.910;2022-11-15T00:56:06;11.53;;;10.33;;
15043;SDS011;7619;48.562;8.910;2022-11-15T00:58:35;9.93;;;7.83;;
15043;SDS011;7619;48.562;8.910;2022-11-15T01:01:08;10.87;;;7.33;;
15043;SDS011;7619;48.562;8.910;2022-11-15T01:03:38;9.57;;;7.10;;
15043;SDS011;7619;48.562;8.910;2022-11-15T01:06:08;9.10;;;6.03;;
15043;SDS011;7619;48.562;8.910;2022-11-15T01:08:38;7.73;;;5.13;;
15043;SDS011;7619;48.562;8.910;2022-11-15T01:11:09;8.87;;;5.43;;
15043;SDS011;7619;48.562;8.910;2022-11-15T01:13:39;8.10;;;5.60;;
15043;SDS011;7619;48.562;8.910;2022-11-15T01:16:09;7.60;;;5.73;;
15043;SDS011;7619;48.562;8.910;2022-11-15T01:18:40;9.37;;;4.87;;
15043;SDS011;7619;48.562;8.910;2022-11-15T01:21:10;5.67;;;4.50;;
15043;SDS011;7619;48.562;8.910;2022-11-15T01:23:41;6.40;;;4.80;;
15043;SDS011;7619;48.562;8.910;2022-11-15T01:26:11;7.13;;;5.50;;
15043;SDS011;7619;48.562;8.910;2022-11-15T01:28:42;8.77;;;6.13;;
15043;SDS011;7619;48.562;8.910;2022-11-15T01:31:12;11.30;;;5.77;;
15043;SDS011;7619;48.562;8.910;2022-11-15T01:33:43;8.23;;;6.37;;
15043;SDS011;7619;48.562;8.910;2022-11-15T01:36:13;6.47;;;5.00;;
15043;SDS011;7619;48.562;8.910;2022-11-15T01:38:44;9.63;;;5.00;;
15043;SDS011;7619;48.562;8.910;2022-11-15T01:41:16;7.87;;;5.30;;
15043;SDS011;7619;48.562;8.910;2022-11-15T01:43:47;8.53;;;5.60;;
15043;SDS011;7619;48.562;8.910;2022-11-15T01:46:28;10.37;;;5.87;;
15043;SDS011;7619;48.562;8.910;2022-11-15T01:49:01;9.67;;;5.37;;
15043;SDS011;7619;48.562;8.910;2022-11-15T01:51:32;10.33;;;6.20;;
15043;SDS011;7619;48.562;8.910;2022-11-15T01:54:02;8.07;;;6.00;;
15043;SDS011;7619;48.562;8.910;2022-11-15T01:56:36;9.07;;;6.70;;
15043;SDS011;7619;48.562;8.910;2022-11-15T01:59:05;9.77;;;5.97;;
15043;SDS011;7619;48.562;8.910;2022-11-15T02:01:37;7.73;;;5.77;;
15043;SDS011;7619;48.562;8.910;2022-11-15T02:04:07;10.10;;;5.90;;
15043;SDS011;7619;48.562;8.910;2022-11-15T02:06:39;10.60;;;6.40;;
15043;SDS011;7619;48.562;8.910;2022-11-15T02:09:09;8.90;;;5.37;;
15043;SDS011;7619;48.562;8.910;2022-11-15T02:11:40;7.33;;;5.50;;
15043;SDS011;7619;48.562;8.910;2022-11-15T02:14:09;6.87;;;5.57;;
15043;SDS011;7619;48.562;8.910;2022-11-15T02:16:41;6.47;;;5.23;;
15043;SDS011;7619;48.562;8.910;2022-11-15T02:19:16;7.07;;;5.73;;
15043;SDS011;7619;48.562;8.910;2022-11-15T02:21:50;6.70;;;5.27;;
15043;SDS011;7619;48.562;8.910;2022-11-15T02:24:27;6.73;;;5.47;;
15043;SDS011;7619;48.562;8.910;2022-11-15T02:27:39;8.13;;;5.60;;
15043;SDS011;7619;48.562;8.910;2022-11-15T02:30:36;6.90;;;5.20;;
15043;SDS011;7619;48.562;8.910;2022-11-15T02:33:11;8.10;;;5.67;;
15043;SDS011;7619;48.562;8.910;2022-11-15T02:35:52;6.63;;;5.10;;
15043;SDS011;7619;48.562;8.910;2022-11-15T02:38:29;7.07;;;5.20;;
15043;SDS011;7619;48.562;8.910;2022-11-15T02:41:00;7.97;;;5.63;;
15043;SDS011;7619;48.562;8.910;2022-11-15T02:43:31;7.03;;;5.30;;
15043;SDS011;7619;48.562;8.910;2022-11-15T02:46:21;7.73;;;5.50;;
15043;SDS011;7619;48.562;8.910;2022-11-15T02:48:54;6.73;;;5.90;;
15043;SDS011;7619;48.562;8.910;2022-11-15T02:51:23;7.07;;;5.00;;
15043;SDS011;7619;48.562;8.910;2022-11-15T02:53:52;8.13;;;5.70;;
15043;SDS011;7619;48.562;8.910;2022-11-15T02:56:21;13.57;;;5.00;;
15043;SDS011;7619;48.562;8.910;2022-11-15T02:59:12;6.67;;;4.53;;
15043;SDS011;7619;48.562;8.910;2022-11-15T03:01:51;8.23;;;5.60;;
15043;SDS011;7619;48.562;8.910;2022-11-15T03:04:27;7.60;;;4.67;;
15043;SDS011;7619;48.562;8.910;2022-11-15T03:07:12;9.77;;;5.67;;
15043;SDS011;7619;48.562;8.910;2022-11-15T03:09:32;6.70;;;4.90;;
15043;SDS011;7619;48.562;8.910;2022-11-15T03:12:03;9.50;;;6.40;;
15043;SDS011;7619;48.562;8.910;2022-11-15T03:14:35;13.83;;;6.23;;
15043;SDS011;7619;48.562;8.910;2022-11-15T03:17:09;7.50;;;5.70;;
15043;SDS011;7619;48.562;8.910;2022-11-15T03:19:40;6.20;;;5.03;;
15043;SDS011;7619;48.562;8.910;2022-11-15T03:22:12;7.03;;;4.93;;
15043;SDS011;7619;48.562;8.910;2022-11-15T03:24:43;6.17;;;5.50;;
15043;SDS011;7619;48.562;8.910;2022-11-15T03:27:15;8.63;;;5.83;;
15043;SDS011;7619;48.562;8.910;2022-11-15T03:29:48;7.47;;;5.77;;
15043;SDS011;7619;48.562;8.910;2022-11-15T03:32:20;7.13;;;5.50;;
15043;SDS011;7619;48.562;8.910;2022-11-15T03:34:52;7.80;;;5.77;;
15043;SDS011;7619;48.562;8.910;2022-11-15T03:37:24;7.43;;;5.57;;
15043;SDS011;7619;48.562;8.910;2022-11-15T03:39:55;6.80;;;5.17;;
15043;SDS011;7619;48.562;8.910;2022-11-15T03:42:26;9.47;;;5.27;;
15043;SDS011;7619;48.562;8.910;2022-11-15T03:44:58;12.43;;;6.20;;
15043;SDS011;7619;48.562;8.910;2022-11-15T03:47:30;8.53;;;5.63;;
15043;SDS011;7619;48.562;8.910;2022-11-15T03:50:08;9.40;;;6.83;;
15043;SDS011;7619;48.562;8.910;2022-11-15T03:52:40;7.90;;;5.73;;
15043;SDS011;7619;48.562;8.910;2022-11-15T03:55:12;11.80;;;5.77;;
15043;SDS011;7619;48.562;8.910;2022-11-15T03:57:42;9.17;;;5.87;;
15043;SDS011;7619;48.562;8.910;2022-11-15T04:00:12;9.67;;;6.33;;
15043;SDS011;7619;48.562;8.910;2022-11-15T04:02:42;9.50;;;5.90;;
15043;SDS011;7619;48.562;8.910;2022-11-15T04:05:11;10.63;;;6.03;;
15043;SDS011;7619;48.562;8.910;2022-11-15T04:07:39;7.90;;;5.43;;
15043;SDS011;7619;48.562;8.910;2022-11-15T04:10:09;9.17;;;5.67;;
15043;SDS011;7619;48.562;8.910;2022-11-15T04:12:40;10.57;;;6.27;;
15043;SDS011;7619;48.562;8.910;2022-11-15T04:15:13;7.97;;;5.87;;
15043;SDS011;7619;48.562;8.910;2022-11-15T04:17:43;7.17;;;4.83;;
15043;SDS011;7619;48.562;8.910;2022-11-15T04:20:17;8.23;;;5.83;;
15043;SDS011;7619;48.562;8.910;2022-11-15T04:23:04;6.90;;;5.33;;
15043;SDS011;7619;48.562;8.910;2022-11-15T04:25:52;6.03;;;5.10;;
15043;SDS011;7619;48.562;8.910;2022-11-15T04:28:22;8.10;;;5.13;;
15043;SDS011;7619;48.562;8.910;2022-11-15T04:30:52;9.97;;;5.83;;
15043;SDS011;7619;48.562;8.910;2022-11-15T04:33:21;8.93;;;5.87;;
15043;SDS011;7619;48.562;8.910;2022-11-15T04:35:50;6.97;;;5.27;;
15043;SDS011;7619;48.562;8.910;2022-11-15T04:38:38;8.07;;;5.17;;
15043;SDS011;7619;48.562;8.910;2022-11-15T04:41:07;8.83;;;5.90;;
15043;SDS011;7619;48.562;8.910;2022-11-15T04:43:36;9.03;;;5.67;;
15043;SDS011;7619;48.562;8.910;2022-11-15T04:46:05;7.37;;;5.13;;
15043;SDS011;7619;48.562;8.910;2022-11-15T04:48:34;7.00;;;5.83;;
15043;SDS011;7619;48.562;8.910;2022-11-15T04:51:03;7.53;;;5.47;;
15043;SDS011;7619;48.562;8.910;2022-11-15T04:53:33;6.30;;;5.43;;
15043;SDS011;7619;48.562;8.910;2022-11-15T04:56:01;7.07;;;5.10;;
15043;SDS011;7619;48.562;8.910;2022-11-15T04:58:31;7.23;;;5.57;;
15043;SDS011;7619;48.562;8.910;2022-11-15T05:01:06;7.87;;;5.77;;
15043;SDS011;7619;48.562;8.910;2022-11-15T05:03:35;6.13;;;4.53;;
15043;SDS011;7619;48.562;8.910;2022-11-15T05:06:22;9.70;;;5.67;;
15043;SDS011;7619;48.562;8.910;2022-11-15T05:08:51;7.03;;;4.80;;
15043;SDS011;7619;48.562;8.910;2022-11-15T05:11:20;6.40;;;5.17;;
15043;SDS011;7619;48.562;8.910;2022-11-15T05:13:49;9.37;;;5.23;;
15043;SDS011;7619;48.562;8.910;2022-11-15T05:16:19;8.10;;;5.67;;
15043;SDS011;7619;48.562;8.910;2022-11-15T05:18:50;6.93;;;5.10;;
15043;SDS011;7619;48.562;8.910;2022-11-15T05:21:20;7.07;;;4.77;;
15043;SDS011;7619;48.562;8.910;2022-11-15T05:23:49;7.60;;;5.20;;
15043;SDS011;7619;48.562;8.910;2022-11-15T05:26:18;7.43;;;5.53;;
15043;SDS011;7619;48.562;8.910;2022-11-15T05:28:51;12.10;;;6.97;;
15043;SDS011;7619;48.562;8.910;2022-11-15T05:31:21;7.43;;;5.47;;
15043;SDS011;7619;48.562;8.910;2022-11-15T05:33:51;8.07;;;4.83;;
15043;SDS011;7619;48.562;8.910;2022-11-15T05:36:27;6.77;;;5.50;;
15043;SDS011;7619;48.562;8.910;2022-11-15T05:38:55;7.47;;;5.10;;
15043;SDS011;7619;48.562;8.910;2022-11-15T05:41:25;11.67;;;6.20;;
15043;SDS011;7619;48.562;8.910;2022-11-15T05:43:57;11.13;;;8.17;;
15043;SDS011;7619;48.562;8.910;2022-11-15T05:46:27;11.17;;;9.43;;
15043;SDS011;7619;48.562;8.910;2022-11-15T05:48:57;18.03;;;9.80;;
15043;SDS011;7619;48.562;8.910;2022-11-15T05:51:26;9.33;;;8.40;;
15043;SDS011;7619;48.562;8.910;2022-11-15T05:53:57;9.63;;;7.57;;
15043;SDS011;7619;48.562;8.910;2022-11-15T05:56:35;11.00;;;7.73;;
15043;SDS011;7619;48.562;8.910;2022-11-15T05:59:04;8.17;;;6.80;;
15043;SDS011;7619;48.562;8.910;2022-11-15T06:01:34;9.77;;;5.83;;
15043;SDS011;7619;48.562;8.910;2022-11-15T06:04:03;10.33;;;5.57;;
15043;SDS011;7619;48.562;8.910;2022-11-15T06:06:33;8.97;;;6.97;;
15043;SDS011;7619;48.562;8.910;2022-11-15T06:09:01;10.50;;;6.80;;
15043;SDS011;7619;48.562;8.910;2022-11-15T06:11:29;12.40;;;7.27;;
15043;SDS011;7619;48.562;8.910;2022-11-15T06:13:56;12.20;;;7.37;;
15043;SDS011;7619;48.562;8.910;2022-11-15T06:16:25;30.77;;;11.73;;
15043;SDS011;7619;48.562;8.910;2022-11-15T06:18:54;83.00;;;23.33;;
15043;SDS011;7619;48.562;8.910;2022-11-15T06:21:23;86.17;;;27.13;;
15043;SDS011;7619;48.562;8.910;2022-11-15T06:23:54;79.37;;;25.80;;
15043;SDS011;7619;48.562;8.910;2022-11-15T06:26:23;85.50;;;29.50;;
15043;SDS011;7619;48.562;8.910;2022-11-15T06:28:52;25.73;;;12.60;;
15043;SDS011;7619;48.562;8.910;2022-11-15T06:31:21;64.80;;;24.23;;
15043;SDS011;7619;48.562;8.910;2022-11-15T06:33:49;74.17;;;30.97;;
15043;SDS011;7619;48.562;8.910;2022-11-15T06:36:18;49.00;;;20.70;;
15043;SDS011;7619;48.562;8.910;2022-11-15T06:38:47;26.87;;;12.57;;
15043;SDS011;7619;48.562;8.910;2022-11-15T06:41:15;19.97;;;10.67;;
15043;SDS011;7619;48.562;8.910;2022-11-15T06:43:44;16.47;;;9.63;;
15043;SDS011;7619;48.562;8.910;2022-11-15T06:46:14;17.07;;;9.73;;
15043;SDS011;7619;48.562;8.910;2022-11-15T06:48:41;15.40;;;9.20;;
15043;SDS011;7619;48.562;8.910;2022-11-15T06:51:10;13.27;;;7.83;;
15043;SDS011;7619;48.562;8.910;2022-11-15T06:53:39;12.47;;;8.60;;
15043;SDS011;7619;48.562;8.910;2022-11-15T06:56:08;15.23;;;8.50;;
15043;SDS011;7619;48.562;8.910;2022-11-15T06:58:37;12.57;;;7.67;;
15043;SDS011;7619;48.562;8.910;2022-11-15T07:01:07;13.70;;;8.30;;
15043;SDS011;7619;48.562;8.910;2022-11-15T07:03:38;14.50;;;8.90;;
15043;SDS011;7619;48.562;8.910;2022-11-15T07:06:06;18.03;;;8.70;;
15043;SDS011;7619;48.562;8.910;2022-11-15T07:08:34;14.73;;;8.40;;
15043;SDS011;7619;48.562;8.910;2022-11-15T07:11:05;10.77;;;7.73;;
15043;SDS011;7619;48.562;8.910;2022-11-15T07:13:35;10.67;;;6.73;;
15043;SDS011;7619;48.562;8.910;2022-11-15T07:16:05;13.97;;;7.07;;
15043;SDS011;7619;48.562;8.910;2022-11-15T07:18:35;11.70;;;6.70;;
15043;SDS011;7619;48.562;8.910;2022-11-15T07:21:06;12.20;;;7.40;;
15043;SDS011;7619;48.562;8.910;2022-11-15T07:23:36;14.37;;;6.40;;
15043;SDS011;7619;48.562;8.910;2022-11-15T07:26:06;12.73;;;6.70;;
15043;SDS011;7619;48.562;8.910;2022-11-15T07:28:35;7.17;;;5.83;;
15043;SDS011;7619;48.562;8.910;2022-11-15T07:33:40;11.33;;;6.30;;
15043;SDS011;7619;48.562;8.910;2022-11-15T07:36:10;7.63;;;6.13;;
15043;SDS011;7619;48.562;8.910;2022-11-15T07:38:38;10.40;;;7.77;;
15043;SDS011;7619;48.562;8.910;2022-11-15T07:41:08;8.93;;;6.57;;
15043;SDS011;7619;48.562;8.910;2022-11-15T07:43:37;9.27;;;6.50;;
15043;SDS011;7619;48.562;8.910;2022-11-15T07:46:06;11.03;;;6.37;;
15043;SDS011;7619;48.562;8.910;2022-11-15T07:48:36;7.30;;;5.77;;
15043;SDS011;7619;48.562;8.910;2022-11-15T07:51:06;10.30;;;6.57;;
15043;SDS011;7619;48.562;8.910;2022-11-15T07:53:36;12.90;;;7.53;;
15043;SDS011;7619;48.562;8.910;2022-11-15T07:56:06;10.70;;;6.57;;
15043;SDS011;7619;48.562;8.910;2022-11-15T07:58:35;9.60;;;6.13;;
15043;SDS011;7619;48.562;8.910;2022-11-15T08:01:04;10.77;;;7.43;;
15043;SDS011;7619;48.562;8.910;2022-11-15T08:03:34;8.93;;;6.47;;
15043;SDS011;7619;48.562;8.910;2022-11-15T08:06:04;9.73;;;5.40;;
15043;SDS011;7619;48.562;8.910;2022-11-15T08:08:34;8.53;;;5.47;;
15043;SDS011;7619;48.562;8.910;2022-11-15T08:11:01;7.43;;;5.87;;
15043;SDS011;7619;48.562;8.910;2022-11-15T08:13:39;12.00;;;5.27;;
15043;SDS011;7619;48.562;8.910;2022-11-15T08:16:07;6.70;;;5.20;;
15043;SDS011;7619;48.562;8.910;2022-11-15T08:18:38;7.80;;;5.57;;
15043;SDS011;7619;48.562;8.910;2022-11-15T08:21:08;7.73;;;5.37;;
15043;SDS011;7619;48.562;8.910;2022-11-15T08:23:39;9.03;;;6.17;;
15043;SDS011;7619;48.562;8.910;2022-11-15T08:26:08;11.90;;;5.90;;
15043;SDS011;7619;48.562;8.910;2022-11-15T08:28:36;6.03;;;5.20;;
15043;SDS011;7619;48.562;8.910;2022-11-15T08:31:06;9.43;;;5.83;;
15043;SDS011;7619;48.562;8.910;2022-11-15T08:33:33;8.33;;;5.93;;
15043;SDS011;7619;48.562;8.910;2022-11-15T08:36:04;5.53;;;4.70;;
15043;SDS011;7619;48.562;8.910;2022-11-15T08:38:32;7.63;;;4.80;;
15043;SDS011;7619;48.562;8.910;2022-11-15T08:41:02;5.23;;;4.33;;
15043;SDS011;7619;48.562;8.910;2022-11-15T08:43:40;5.53;;;3.70;;
15043;SDS011;7619;48.562;8.910;2022-11-15T08:46:09;4.73;;;3.60;;
15043;SDS011;7619;48.562;8.910;2022-11-15T08:48:40;3.10;;;2.67;;
15043;SDS011;7619;48.562;8.910;2022-11-15T08:51:09;3.93;;;2.67;;
15043;SDS011;7619;48.562;8.910;2022-11-15T08:53:38;4.23;;;2.93;;
15043;SDS011;7619;48.562;8.910;2022-11-15T08:56:15;5.90;;;3.73;;
15043;SDS011;7619;48.562;8.910;2022-11-15T08:58:44;4.70;;;2.90;;
15043;SDS011;7619;48.562;8.910;2022-11-15T09:01:16;6.50;;;4.43;;
15043;SDS011;7619;48.562;8.910;2022-11-15T09:03:46;4.90;;;4.20;;
15043;SDS011;7619;48.562;8.910;2022-11-15T09:06:15;4.90;;;3.40;;
15043;SDS011;7619;48.562;8.910;2022-11-15T09:08:44;4.13;;;3.27;;
15043;SDS011;7619;48.562;8.910;2022-11-15T09:11:12;5.23;;;3.70;;
15043;SDS011;7619;48.562;8.910;2022-11-15T09:13:42;7.53;;;4.17;;
15043;SDS011;7619;48.562;8.910;2022-11-15T09:16:12;6.20;;;4.33;;
15043;SDS011;7619;48.562;8.910;2022-11-15T09:18:41;6.90;;;3.77;;
15043;SDS011;7619;48.562;8.910;2022-11-15T09:21:10;4.30;;;3.83;;
15043;SDS011;7619;48.562;8.910;2022-11-15T09:23:40;6.00;;;3.63;;
15043;SDS011;7619;48.562;8.910;2022-11-15T09:26:09;6.50;;;4.90;;
15043;SDS011;7619;48.562;8.910;2022-11-15T09:28:37;9.30;;;4.90;;
15043;SDS011;7619;48.562;8.910;2022-11-15T09:31:06;6.27;;;4.13;;
15043;SDS011;7619;48.562;8.910;2022-11-15T09:33:36;4.80;;;4.30;;
15043;SDS011;7619;48.562;8.910;2022-11-15T09:36:07;4.90;;;3.80;;
15043;SDS011;7619;48.562;8.910;2022-11-15T09:38:35;8.20;;;4.03;;
15043;SDS011;7619;48.562;8.910;2022-11-15T09:41:13;6.07;;;4.17;;
15043;SDS011;7619;48.562;8.910;2022-11-15T09:44:01;4.97;;;3.50;;
15043;SDS011;7619;48.562;8.910;2022-11-15T09:46:36;5.37;;;3.87;;
15043;SDS011;7619;48.562;8.910;2022-11-15T09:49:07;4.73;;;3.07;;
15043;SDS011;7619;48.562;8.910;2022-11-15T09:51:39;7.83;;;3.70;;
15043;SDS011;7619;48.562;8.910;2022-11-15T09:54:16;10.30;;;3.43;;
15043;SDS011;7619;48.562;8.910;2022-11-15T09:56:45;7.90;;;3.57;;
15043;SDS011;7619;48.562;8.910;2022-11-15T09:59:20;4.53;;;3.53;;
15043;SDS011;7619;48.562;8.910;2022-11-15T10:02:12;3.30;;;3.00;;
15043;SDS011;7619;48.562;8.910;2022-11-15T10:04:44;4.13;;;3.30;;
15043;SDS011;7619;48.562;8.910;2022-11-15T10:07:14;3.37;;;2.70;;
15043;SDS011;7619;48.562;8.910;2022-11-15T10:09:54;2.67;;;2.47;;
15043;SDS011;7619;48.562;8.910;2022-11-15T10:12:25;3.40;;;2.50;;
15043;SDS011;7619;48.562;8.910;2022-11-15T10:14:55;5.10;;;2.97;;
15043;SDS011;7619;48.562;8.910;2022-11-15T10:17:40;4.93;;;2.60;;
15043;SDS011;7619;48.562;8.910;2022-11-15T10:20:27;2.70;;;1.90;;
15043;SDS011;7619;48.562;8.910;2022-11-15T10:22:59;2.43;;;2.10;;
15043;SDS011;7619;48.562;8.910;2022-11-15T10:25:31;1.80;;;1.70;;
15043;SDS011;7619;48.562;8.910;2022-11-15T10:28:03;2.10;;;1.90;;
15043;SDS011;7619;48.562;8.910;2022-11-15T10:30:35;2.70;;;2.07;;
15043;SDS011;7619;48.562;8.910;2022-11-15T10:33:18;2.13;;;1.93;;
15043;SDS011;7619;48.562;8.910;2022-11-15T10:36:16;3.27;;;2.53;;
15043;SDS011;7619;48.562;8.910;2022-11-15T10:38:58;3.30;;;2.63;;
15043;SDS011;7619;48.562;8.910;2022-11-15T10:41:34;4.77;;;2.40;;
15043;SDS011;7619;48.562;8.910;2022-11-15T10:44:12;3.33;;;2.50;;
15043;SDS011;7619;48.562;8.910;2022-11-15T10:47:04;2.77;;;2.43;;
15043;SDS011;7619;48.562;8.910;2022-11-15T10:49:35;5.10;;;2.50;;
15043;SDS011;7619;48.562;8.910;2022-11-15T10:52:12;2.53;;;2.20;;
15043;SDS011;7619;48.562;8.910;2022-11-15T10:54:43;3.87;;;2.77;;
15043;SDS011;7619;48.562;8.910;2022-11-15T10:57:12;2.77;;;2.57;;
15043;SDS011;7619;48.562;8.910;2022-11-15T11:00:06;2.57;;;2.37;;
15043;SDS011;7619;48.562;8.910;2022-11-15T11:02:35;3.40;;;2.60;;
15043;SDS011;7619;48.562;8.910;2022-11-15T11:05:06;4.60;;;2.27;;
15043;SDS011;7619;48.562;8.910;2022-11-15T11:07:43;3.87;;;2.50;;
15043;SDS011;7619;48.562;8.910;2022-11-15T11:10:18;2.87;;;2.23;;
15043;SDS011;7619;48.562;8.910;2022-11-15T11:12:55;4.20;;;2.70;;
15043;SDS011;7619;48.562;8.910;2022-11-15T11:15:26;4.13;;;2.83;;
15043;SDS011;7619;48.562;8.910;2022-11-15T11:17:59;2.97;;;2.40;;
15043;SDS011;7619;48.562;8.910;2022-11-15T11:20:32;4.00;;;2.83;;
15043;SDS011;7619;48.562;8.910;2022-11-15T11:23:05;4.57;;;2.97;;
15043;SDS011;7619;48.562;8.910;2022-11-15T11:25:46;3.00;;;2.57;;
15043;SDS011;7619;48.562;8.910;2022-11-15T11:28:17;2.97;;;2.63;;
15043;SDS011;7619;48.562;8.910;2022-11-15T11:30:56;2.90;;;2.70;;
15043;SDS011;7619;48.562;8.910;2022-11-15T11:33:29;5.80;;;2.50;;
15043;SDS011;7619;48.562;8.910;2022-11-15T11:36:05;2.50;;;2.30;;
15043;SDS011;7619;48.562;8.910;2022-11-15T11:38:50;4.67;;;2.20;;
15043;SDS011;7619;48.562;8.910;2022-11-15T11:41:30;2.83;;;2.10;;
15043;SDS011;7619;48.562;8.910;2022-11-15T11:44:28;3.10;;;2.20;;
15043;SDS011;7619;48.562;8.910;2022-11-15T11:47:03;3.00;;;2.60;;
15043;SDS011;7619;48.562;8.910;2022-11-15T11:49:34;2.90;;;2.37;;
15043;SDS011;7619;48.562;8.910;2022-11-15T11:52:08;3.80;;;2.93;;
15043;SDS011;7619;48.562;8.910;2022-11-15T11:54:44;2.73;;;2.43;;
15043;SDS011;7619;48.562;8.910;2022-11-15T11:57:16;3.83;;;2.40;;
15043;SDS011;7619;48.562;8.910;2022-11-15T11:59:51;4.07;;;2.53;;
15043;SDS011;7619;48.562;8.910;2022-11-15T12:02:25;3.17;;;2.47;;
15043;SDS011;7619;48.562;8.910;2022-11-15T12:05:01;2.40;;;2.20;;
15043;SDS011;7619;48.562;8.910;2022-11-15T12:07:32;4.40;;;2.80;;
15043;SDS011;7619;48.562;8.910;2022-11-15T12:10:04;4.17;;;2.63;;
15043;SDS011;7619;48.562;8.910;2022-11-15T12:12:43;3.83;;;2.50;;
15043;SDS011;7619;48.562;8.910;2022-11-15T12:15:15;5.40;;;2.77;;
15043;SDS011;7619;48.562;8.910;2022-11-15T12:17:47;2.90;;;2.57;;
15043;SDS011;7619;48.562;8.910;2022-11-15T12:20:16;3.20;;;2.77;;
15043;SDS011;7619;48.562;8.910;2022-11-15T12:22:49;3.23;;;2.57;;
15043;SDS011;7619;48.562;8.910;2022-11-15T12:25:22;2.43;;;2.23;;
15043;SDS011;7619;48.562;8.910;2022-11-15T12:28:01;4.23;;;2.40;;
15043;SDS011;7619;48.562;8.910;2022-11-15T12:30:37;2.23;;;1.87;;
15043;SDS011;7619;48.562;8.910;2022-11-15T12:33:29;2.13;;;2.00;;
15043;SDS011;7619;48.562;8.910;2022-11-15T12:35:58;4.83;;;2.67;;
15043;SDS011;7619;48.562;8.910;2022-11-15T12:38:50;5.60;;;2.70;;
15043;SDS011;7619;48.562;8.910;2022-11-15T12:41:25;5.13;;;2.60;;
15043;SDS011;7619;48.562;8.910;2022-11-15T12:43:55;5.73;;;2.60;;
15043;SDS011;7619;48.562;8.910;2022-11-15T12:49:44;5.93;;;2.83;;
15043;SDS011;7619;48.562;8.910;2022-11-15T12:52:14;4.90;;;2.67;;
15043;SDS011;7619;48.562;8.910;2022-11-15T12:54:55;4.17;;;2.47;;
15043;SDS011;7619;48.562;8.910;2022-11-15T13:08:58;4.87;;;3.27;;
15043;SDS011;7619;48.562;8.910;2022-11-15T13:11:43;9.43;;;3.50;;
15043;SDS011;7619;48.562;8.910;2022-11-15T13:20:24;6.90;;;3.80;;
15043;SDS011;7619;48.562;8.910;2022-11-15T13:23:00;4.13;;;3.20;;
15043;SDS011;7619;48.562;8.910;2022-11-15T13:25:38;4.40;;;3.43;;
15043;SDS011;7619;48.562;8.910;2022-11-15T13:28:21;4.40;;;3.37;;
15043;SDS011;7619;48.562;8.910;2022-11-15T13:30:53;4.60;;;2.80;;
15043;SDS011;7619;48.562;8.910;2022-11-15T13:33:24;4.57;;;3.30;;
15043;SDS011;7619;48.562;8.910;2022-11-15T13:36:03;3.00;;;2.70;;
15043;SDS011;7619;48.562;8.910;2022-11-15T13:38:35;4.17;;;3.33;;
15043;SDS011;7619;48.562;8.910;2022-11-15T13:41:14;4.20;;;2.90;;
15043;SDS011;7619;48.562;8.910;2022-11-15T13:43:49;4.83;;;3.23;;
15043;SDS011;7619;48.562;8.910;2022-11-15T13:46:18;2.80;;;2.40;;
15043;SDS011;7619;48.562;8.910;2022-11-15T13:48:51;3.33;;;2.47;;
15043;SDS011;7619;48.562;8.910;2022-11-15T13:51:24;4.87;;;2.57;;
15043;SDS011;7619;48.562;8.910;2022-11-15T13:54:00;3.67;;;2.37;;
15043;SDS011;7619;48.562;8.910;2022-11-15T13:56:31;2.37;;;2.07;;
15043;SDS011;7619;48.562;8.910;2022-11-15T13:59:07;5.57;;;2.73;;
15043;SDS011;7619;48.562;8.910;2022-11-15T14:01:36;2.70;;;2.20;;
15043;SDS011;7619;48.562;8.910;2022-11-15T14:04:10;2.97;;;2.17;;
15043;SDS011;7619;48.562;8.910;2022-11-15T14:06:45;2.97;;;2.67;;
15043;SDS011;7619;48.562;8.910;2022-11-15T14:09:24;3.33;;;2.37;;
15043;SDS011;7619;48.562;8.910;2022-11-15T14:11:59;7.67;;;3.23;;
15043;SDS011;7619;48.562;8.910;2022-11-15T14:14:43;3.67;;;2.50;;
15043;SDS011;7619;48.562;8.910;2022-11-15T14:17:19;4.27;;;3.47;;
15043;SDS011;7619;48.562;8.910;2022-11-15T14:19:50;2.67;;;2.03;;
15043;SDS011;7619;48.562;8.910;2022-11-15T14:22:20;2.50;;;2.27;;
15043;SDS011;7619;48.562;8.910;2022-11-15T14:25:05;3.13;;;2.73;;
15043;SDS011;7619;48.562;8.910;2022-11-15T14:31:10;5.03;;;3.00;;
15043;SDS011;7619;48.562;8.910;2022-11-15T14:33:40;6.43;;;3.00;;
15043;SDS011;7619;48.562;8.910;2022-11-15T14:36:11;9.53;;;4.53;;
15043;SDS011;7619;48.562;8.910;2022-11-15T14:38:41;3.07;;;2.77;;
15043;SDS011;7619;48.562;8.910;2022-11-15T14:41:13;3.30;;;2.77;;
15043;SDS011;7619;48.562;8.910;2022-11-15T14:43:46;6.40;;;4.17;;
15043;SDS011;7619;48.562;8.910;2022-11-15T14:46:16;4.20;;;3.50;;
15043;SDS011;7619;48.562;8.910;2022-11-15T14:48:44;3.20;;;2.90;;
15043;SDS011;7619;48.562;8.910;2022-11-15T14:51:13;4.93;;;3.20;;
15043;SDS011;7619;48.562;8.910;2022-11-15T14:53:44;5.13;;;3.27;;
15043;SDS011;7619;48.562;8.910;2022-11-15T14:56:12;4.43;;;3.37;;
15043;SDS011;7619;48.562;8.910;2022-11-15T14:58:42;4.17;;;3.30;;
15043;SDS011;7619;48.562;8.910;2022-11-15T15:01:12;5.57;;;3.33;;
15043;SDS011;7619;48.562;8.910;2022-11-15T15:03:49;4.83;;;4.17;;
15043;SDS011;7619;48.562;8.910;2022-11-15T15:06:20;4.83;;;3.87;;
15043;SDS011;7619;48.562;8.910;2022-11-15T15:08:48;6.03;;;4.33;;
15043;SDS011;7619;48.562;8.910;2022-11-15T15:11:19;6.77;;;4.60;;
15043;SDS011;7619;48.562;8.910;2022-11-15T15:13:50;9.70;;;5.23;;
15043;SDS011;7619;48.562;8.910;2022-11-15T15:16:21;9.90;;;4.80;;
15043;SDS011;7619;48.562;8.910;2022-11-15T15:18:50;6.77;;;4.73;;
15043;SDS011;7619;48.562;8.910;2022-11-15T15:21:20;7.20;;;4.80;;
15043;SDS011;7619;48.562;8.910;2022-11-15T15:23:51;8.47;;;4.00;;
15043;SDS011;7619;48.562;8.910;2022-11-15T15:26:21;5.87;;;4.47;;
15043;SDS011;7619;48.562;8.910;2022-11-15T15:28:51;6.60;;;4.43;;
15043;SDS011;7619;48.562;8.910;2022-11-15T15:31:19;8.10;;;4.53;;
15043;SDS011;7619;48.562;8.910;2022-11-15T15:33:56;8.93;;;4.63;;
15043;SDS011;7619;48.562;8.910;2022-11-15T15:36:25;6.63;;;4.47;;
15043;SDS011;7619;48.562;8.910;2022-11-15T15:38:53;7.57;;;5.13;;
15043;SDS011;7619;48.562;8.910;2022-11-15T15:41:22;6.63;;;5.00;;
15043;SDS011;7619;48.562;8.910;2022-11-15T15:43:51;8.10;;;6.00;;
15043;SDS011;7619;48.562;8.910;2022-11-15T15:46:20;8.57;;;6.43;;
15043;SDS011;7619;48.562;8.910;2022-11-15T15:48:49;12.03;;;7.67;;
15043;SDS011;7619;48.562;8.910;2022-11-15T15:51:18;12.67;;;7.67;;
15043;SDS011;7619;48.562;8.910;2022-11-15T15:53:47;12.50;;;7.67;;
15043;SDS011;7619;48.562;8.910;2022-11-15T15:56:18;11.83;;;7.87;;